createdAt,value
2018-09-19T00:02:03.468Z,99.90
2018-09-19T00:04:31.698Z,99.90
2018-09-19T00:06:59.909Z,99.90
2018-09-19T00:09:28.125Z,99.90
2018-09-19T00:11:56.351Z,99.90
2018-09-19T00:14:24.591Z,99.90
2018-09-19T00:16:52.773Z,99.90
2018-09-19T00:19:20.968Z,99.90
2018-09-19T00:21:49.289Z,99.90
2018-09-19T00:24:17.477Z,99.90
2018-09-19T00:26:45.680Z,99.90
2018-09-19T00:29:13.846Z,99.90
2018-09-19T00:31:41.989Z,99.90
2018-09-19T00:34:10.280Z,99.90
2018-09-19T00:36:38.575Z,99.90
2018-09-19T00:39:07.818Z,99.90
2018-09-19T00:41:36.105Z,99.90
2018-09-19T00:44:04.431Z,99.90
2018-09-19T00:46:32.596Z,99.90
2018-09-19T00:49:00.823Z,99.90
2018-09-19T00:51:29.041Z,99.90
2018-09-19T00:53:57.278Z,99.90
2018-09-19T00:56:25.537Z,99.90
2018-09-19T00:58:53.770Z,99.90
2018-09-19T01:01:21.952Z,99.90
2018-09-19T01:03:50.263Z,99.90
2018-09-19T01:06:18.450Z,99.90
2018-09-19T01:08:46.661Z,99.90
2018-09-19T01:11:14.919Z,99.90
2018-09-19T01:13:43.224Z,99.90
2018-09-19T01:16:11.512Z,99.90
2018-09-19T01:18:39.640Z,99.90
2018-09-19T01:21:07.896Z,99.90
2018-09-19T01:23:36.132Z,99.90
2018-09-19T01:26:04.307Z,99.90
2018-09-19T01:28:32.537Z,99.90
2018-09-19T01:31:00.733Z,99.90
2018-09-19T01:33:28.930Z,99.90
2018-09-19T01:35:57.127Z,99.90
2018-09-19T01:38:25.341Z,99.90
2018-09-19T01:40:53.546Z,99.90
2018-09-19T01:43:21.759Z,99.90
2018-09-19T01:45:49.974Z,99.90
2018-09-19T01:48:18.240Z,99.90
2018-09-19T01:50:46.650Z,99.90
2018-09-19T01:53:14.873Z,99.90
2018-09-19T01:55:43.090Z,99.90
2018-09-19T01:58:11.381Z,99.90
2018-09-19T02:00:39.598Z,99.90
2018-09-19T02:03:07.848Z,99.90
2018-09-19T02:05:36.241Z,99.90
2018-09-19T02:08:04.446Z,99.90
2018-09-19T02:10:32.651Z,99.90
2018-09-19T02:13:00.929Z,99.90
2018-09-19T02:15:29.121Z,99.90
2018-09-19T02:17:57.497Z,99.90
2018-09-19T02:20:25.628Z,99.90
2018-09-19T02:22:53.805Z,99.90
2018-09-19T02:25:22.103Z,99.90
2018-09-19T02:27:50.387Z,99.90
2018-09-19T02:30:18.625Z,99.90
2018-09-19T02:32:46.852Z,99.90
2018-09-19T02:35:15.156Z,99.90
2018-09-19T02:37:43.385Z,99.90
2018-09-19T02:40:11.649Z,99.90
2018-09-19T02:42:39.880Z,99.90
2018-09-19T02:45:08.053Z,99.90
2018-09-19T02:47:36.268Z,99.90
2018-09-19T02:50:04.486Z,99.90
2018-09-19T02:52:32.735Z,99.90
2018-09-19T02:55:01.005Z,99.90
2018-09-19T02:57:29.276Z,99.90
2018-09-19T02:59:57.424Z,99.90
2018-09-19T03:02:25.759Z,99.90
2018-09-19T03:04:53.933Z,99.90
2018-09-19T03:07:22.186Z,99.90
2018-09-19T03:09:50.357Z,99.90
2018-09-19T03:12:18.541Z,99.90
2018-09-19T03:14:46.729Z,99.90
2018-09-19T03:17:14.957Z,99.90
2018-09-19T03:19:43.118Z,99.90
2018-09-19T03:22:11.365Z,99.90
2018-09-19T03:24:39.564Z,99.90
2018-09-19T03:27:07.785Z,99.90
2018-09-19T03:29:35.994Z,99.90
2018-09-19T03:32:04.211Z,99.90
2018-09-19T03:34:32.515Z,99.90
2018-09-19T03:37:00.717Z,99.90
2018-09-19T03:39:28.859Z,99.90
2018-09-19T03:41:57.139Z,99.90
2018-09-19T03:44:25.383Z,99.90
2018-09-19T03:46:53.571Z,99.90
2018-09-19T03:49:21.776Z,99.90
2018-09-19T03:51:50.053Z,99.90
2018-09-19T03:54:18.253Z,99.90
2018-09-19T03:56:46.468Z,99.90
2018-09-19T03:59:14.639Z,99.90
2018-09-19T04:01:42.832Z,99.90
2018-09-19T04:04:11.091Z,99.90
2018-09-19T04:06:39.357Z,99.90
2018-09-19T04:09:09.586Z,99.90
2018-09-19T04:11:37.916Z,99.90
2018-09-19T04:14:06.336Z,99.90
2018-09-19T04:16:34.526Z,99.90
2018-09-19T04:19:02.699Z,99.90
2018-09-19T04:21:30.928Z,99.90
2018-09-19T04:23:59.197Z,99.90
2018-09-19T04:26:27.689Z,99.90
2018-09-19T04:28:55.874Z,99.90
2018-09-19T04:31:24.125Z,99.90
2018-09-19T04:33:52.342Z,99.90
2018-09-19T04:36:20.542Z,99.90
2018-09-19T04:38:48.694Z,99.90
2018-09-19T04:41:16.950Z,99.90
2018-09-19T04:43:45.208Z,99.90
2018-09-19T04:46:13.374Z,99.90
2018-09-19T04:48:41.588Z,99.90
2018-09-19T04:51:09.771Z,99.90
2018-09-19T04:53:38.102Z,99.90
2018-09-19T04:56:06.658Z,99.90
2018-09-19T04:58:35.323Z,99.90
2018-09-19T05:01:03.593Z,99.90
2018-09-19T05:03:31.943Z,99.90
2018-09-19T05:06:00.185Z,99.90
2018-09-19T05:08:28.632Z,99.90
2018-09-19T05:10:56.861Z,99.90
2018-09-19T05:13:25.045Z,99.90
2018-09-19T05:15:53.243Z,99.90
2018-09-19T05:18:21.424Z,99.90
2018-09-19T05:20:49.715Z,99.90
2018-09-19T05:23:17.863Z,99.90
2018-09-19T05:25:46.175Z,99.90
2018-09-19T05:28:14.533Z,99.90
2018-09-19T05:30:42.725Z,99.90
2018-09-19T05:33:10.884Z,99.90
2018-09-19T05:35:39.086Z,99.90
2018-09-19T05:38:07.432Z,99.90
2018-09-19T05:40:35.666Z,99.90
2018-09-19T05:43:03.998Z,99.90
2018-09-19T05:45:32.253Z,99.90
2018-09-19T05:48:00.465Z,99.90
2018-09-19T05:50:29.089Z,99.90
2018-09-19T05:53:05.167Z,99.90
2018-09-19T05:55:36.133Z,99.90
2018-09-19T05:58:04.576Z,99.90
2018-09-19T06:00:33.885Z,99.90
2018-09-19T06:03:03.602Z,99.90
2018-09-19T06:05:31.974Z,99.90
2018-09-19T06:08:00.438Z,99.90
2018-09-19T06:15:31.816Z,99.90
2018-09-19T06:18:16.965Z,99.90
2018-09-19T06:20:45.252Z,99.90
2018-09-19T06:23:17.311Z,99.90
2018-09-19T06:25:52.122Z,99.90
2018-09-19T06:28:20.427Z,99.90
2018-09-19T06:30:48.752Z,99.90
2018-09-19T06:33:17.088Z,99.90
2018-09-19T06:35:46.978Z,99.90
2018-09-19T06:38:15.320Z,99.90
2018-09-19T06:40:44.931Z,99.90
2018-09-19T06:43:13.221Z,99.90
2018-09-19T06:45:41.987Z,99.90
2018-09-19T06:48:10.139Z,99.90
2018-09-19T06:50:38.380Z,99.90
2018-09-19T06:53:06.568Z,99.90
2018-09-19T06:55:34.813Z,99.90
2018-09-19T06:58:03.036Z,99.90
2018-09-19T07:00:35.860Z,99.90
2018-09-19T07:03:04.224Z,99.90
2018-09-19T07:05:32.376Z,99.90
2018-09-19T07:08:00.580Z,99.90
2018-09-19T07:10:29.789Z,99.90
2018-09-19T07:12:58.034Z,99.90
2018-09-19T07:15:26.263Z,99.90
2018-09-19T07:17:54.581Z,99.90
2018-09-19T07:20:22.783Z,99.90
2018-09-19T07:22:51.754Z,99.90
2018-09-19T07:25:20.137Z,99.90
2018-09-19T07:27:48.389Z,99.90
2018-09-19T07:30:16.973Z,99.90
2018-09-19T07:32:45.373Z,99.90
2018-09-19T07:35:14.684Z,99.90
2018-09-19T07:37:42.988Z,99.90
2018-09-19T07:40:11.363Z,99.90
2018-09-19T07:42:39.732Z,99.90
2018-09-19T07:45:07.989Z,99.90
2018-09-19T07:47:36.420Z,99.90
2018-09-19T07:50:05.100Z,99.90
2018-09-19T07:52:33.414Z,99.90
2018-09-19T07:55:01.669Z,99.90
2018-09-19T07:57:30.452Z,99.90
2018-09-19T07:59:59.382Z,99.90
2018-09-19T08:02:28.228Z,99.90
2018-09-19T08:04:57.165Z,99.90
2018-09-19T08:07:25.475Z,99.90
2018-09-19T08:09:53.780Z,99.90
2018-09-19T08:12:22.037Z,99.90
2018-09-19T08:14:50.290Z,99.90
2018-09-19T08:17:18.698Z,99.90
2018-09-19T08:19:47.069Z,99.90
2018-09-19T08:22:15.693Z,99.90
2018-09-19T08:24:44.100Z,99.90
2018-09-19T08:27:12.405Z,99.90
2018-09-19T08:29:42.456Z,99.90
2018-09-19T08:32:11.104Z,99.90
2018-09-19T08:34:39.539Z,99.90
2018-09-19T08:37:16.586Z,99.90
2018-09-19T08:39:46.815Z,99.90
2018-09-19T08:42:15.085Z,99.90
2018-09-19T08:44:43.299Z,99.90
2018-09-19T08:47:11.581Z,99.90
2018-09-19T08:49:40.197Z,99.90
2018-09-19T08:52:08.745Z,99.90
2018-09-19T08:54:37.000Z,99.90
2018-09-19T08:57:05.630Z,99.90
2018-09-19T08:59:34.009Z,99.90
2018-09-19T09:02:02.909Z,99.90
2018-09-19T09:04:31.320Z,99.90
2018-09-19T09:06:59.628Z,99.90
2018-09-19T09:09:27.887Z,99.90
2018-09-19T09:11:56.456Z,99.90
2018-09-19T09:14:24.864Z,99.90
2018-09-19T09:16:53.171Z,99.90
2018-09-19T09:19:21.500Z,99.90
2018-09-19T09:21:49.700Z,99.90
2018-09-19T09:24:18.736Z,99.90
2018-09-19T09:26:47.094Z,99.90
2018-09-19T09:29:15.828Z,99.90
2018-09-19T09:31:44.060Z,99.90
2018-09-19T09:34:12.748Z,99.90
2018-09-19T09:36:41.229Z,99.90
2018-09-19T09:39:09.677Z,99.90
2018-09-19T09:41:38.611Z,99.90
2018-09-19T09:44:07.201Z,99.90
2018-09-19T09:46:37.876Z,99.90
2018-09-19T09:49:06.815Z,99.90
2018-09-19T09:51:35.235Z,99.90
2018-09-19T09:54:03.553Z,99.90
2018-09-19T09:56:31.711Z,99.90
2018-09-19T09:59:00.359Z,99.90
2018-09-19T10:01:28.771Z,99.90
2018-09-19T10:03:58.033Z,99.90
2018-09-19T10:06:26.448Z,99.90
2018-09-19T10:08:54.789Z,99.90
2018-09-19T10:11:24.792Z,99.90
2018-09-19T10:13:53.239Z,99.90
2018-09-19T10:16:21.702Z,99.90
2018-09-19T10:18:50.323Z,99.90
2018-09-19T10:21:18.904Z,99.90
2018-09-19T10:23:47.517Z,99.90
2018-09-19T10:26:17.012Z,99.90
2018-09-19T10:28:45.427Z,99.90
2018-09-19T10:31:13.689Z,99.90
2018-09-19T10:33:41.972Z,99.90
2018-09-19T10:36:10.265Z,99.90
2018-09-19T10:38:38.709Z,99.90
2018-09-19T10:41:07.495Z,99.90
2018-09-19T10:43:35.884Z,99.90
2018-09-19T10:46:04.120Z,99.90
2018-09-19T10:48:32.653Z,99.90
2018-09-19T10:51:00.928Z,99.90
2018-09-19T10:53:29.583Z,99.90
2018-09-19T10:55:58.014Z,99.90
2018-09-19T10:58:26.505Z,99.90
2018-09-19T11:00:55.020Z,99.90
2018-09-19T11:03:23.643Z,99.90
2018-09-19T11:05:52.122Z,99.90
2018-09-19T11:08:21.430Z,99.90
2018-09-19T11:10:49.717Z,99.90
2018-09-19T11:13:18.091Z,99.90
2018-09-19T11:15:46.562Z,99.90
2018-09-19T11:18:14.918Z,99.90
2018-09-19T11:20:43.222Z,99.90
2018-09-19T11:23:16.621Z,99.90
2018-09-19T11:25:48.240Z,99.90
2018-09-19T11:28:16.827Z,99.90
2018-09-19T11:30:45.141Z,99.90
2018-09-19T11:33:13.580Z,99.90
2018-09-19T11:35:42.052Z,99.90
2018-09-19T11:38:10.360Z,99.90
2018-09-19T11:40:47.526Z,99.90
2018-09-19T11:43:16.377Z,99.90
2018-09-19T11:45:44.862Z,99.80
2018-09-19T11:48:13.140Z,99.80
2018-09-19T11:50:41.357Z,99.80
2018-09-19T11:53:15.077Z,99.40
2018-09-19T11:55:43.404Z,99.50
2018-09-19T11:58:11.637Z,99.20
2018-09-19T12:00:40.076Z,98.90
2018-09-19T12:05:58.789Z,98.40
2018-09-19T12:08:27.123Z,97.90
2018-09-19T12:10:55.384Z,98.10
2018-09-19T12:13:23.665Z,97.80
2018-09-19T12:15:52.011Z,98.00
2018-09-19T12:18:20.244Z,98.10
2018-09-19T12:20:48.654Z,98.00
2018-09-19T12:23:17.077Z,98.00
2018-09-19T12:25:45.362Z,97.90
2018-09-19T12:28:13.682Z,97.90
2018-09-19T12:30:47.041Z,97.70
2018-09-19T12:33:17.591Z,97.50
2018-09-19T12:35:45.965Z,97.60
2018-09-19T12:38:14.345Z,97.40
2018-09-19T12:40:42.620Z,97.30
2018-09-19T12:43:10.896Z,97.10
2018-09-19T12:45:40.503Z,97.00
2018-09-19T12:48:08.991Z,97.00
2018-09-19T12:50:37.873Z,96.80
2018-09-19T12:53:06.735Z,96.80
2018-09-19T12:55:35.052Z,96.80
2018-09-19T12:58:03.642Z,96.60
2018-09-19T13:00:31.943Z,96.70
2018-09-19T13:03:00.791Z,96.50
2018-09-19T13:05:29.152Z,96.60
2018-09-19T13:07:57.532Z,96.80
2018-09-19T13:10:25.963Z,96.70
2018-09-19T13:12:54.201Z,96.50
2018-09-19T13:15:22.501Z,96.40
2018-09-19T13:17:50.747Z,96.30
2018-09-19T13:20:19.441Z,96.20
2018-09-19T13:22:47.726Z,96.20
2018-09-19T13:25:16.229Z,96.00
2018-09-19T13:27:44.620Z,95.90
2018-09-19T13:30:13.049Z,96.00
2018-09-19T13:32:41.343Z,95.90
2018-09-19T13:35:10.546Z,95.70
2018-09-19T13:37:39.009Z,95.60
2018-09-19T13:40:07.613Z,95.60
2018-09-19T13:42:35.975Z,95.40
2018-09-19T13:45:04.267Z,95.60
2018-09-19T13:47:32.476Z,95.50
2018-09-19T13:51:11.590Z,95.60
2018-09-19T13:53:40.005Z,95.60
2018-09-19T13:56:08.406Z,95.50
2018-09-19T13:58:36.621Z,95.40
2018-09-19T14:01:05.115Z,95.40
2018-09-19T14:03:33.467Z,95.50
2018-09-19T14:06:01.942Z,95.40
2018-09-19T14:08:30.984Z,95.50
2018-09-19T14:10:59.463Z,95.30
2018-09-19T14:13:27.930Z,95.40
2018-09-19T14:15:56.131Z,95.40
2018-09-19T14:18:24.420Z,95.40
2018-09-19T14:20:52.870Z,95.30
2018-09-19T14:23:21.172Z,95.30
2018-09-19T14:25:49.891Z,95.30
2018-09-19T14:28:18.392Z,95.20
2018-09-19T14:30:47.412Z,95.10
2018-09-19T14:33:15.661Z,95.10
2018-09-19T14:35:44.115Z,95.20
2018-09-19T14:38:12.899Z,95.20
2018-09-19T14:40:41.568Z,95.30
2018-09-19T14:43:09.926Z,95.30
2018-09-19T14:45:38.273Z,95.30
2018-09-19T14:48:06.481Z,95.40
2018-09-19T14:50:34.808Z,95.40
2018-09-19T14:53:03.221Z,95.40
2018-09-19T14:55:31.572Z,95.40
2018-09-19T14:58:00.291Z,95.30
2018-09-19T15:00:29.584Z,95.40
2018-09-19T15:02:58.097Z,95.30
2018-09-19T15:05:26.891Z,95.20
2018-09-19T15:07:58.008Z,95.20
2018-09-19T15:10:27.248Z,95.20
2018-09-19T15:12:55.476Z,95.30
2018-09-19T15:15:24.106Z,95.40
2018-09-19T15:17:53.087Z,95.30
2018-09-19T15:20:21.639Z,95.40
2018-09-19T15:22:49.902Z,95.60
2018-09-19T15:25:18.252Z,95.60
2018-09-19T15:27:46.590Z,95.70
2018-09-19T15:30:14.835Z,95.80
2018-09-19T15:32:43.502Z,96.10
2018-09-19T15:35:13.706Z,96.50
2018-09-19T15:37:44.974Z,96.20
2018-09-19T15:40:13.533Z,96.40
2018-09-19T15:42:42.480Z,96.70
2018-09-19T15:45:14.430Z,96.70
2018-09-19T15:47:47.979Z,96.60
2018-09-19T15:50:18.993Z,96.60
2018-09-19T15:52:48.600Z,96.60
2018-09-19T15:55:17.740Z,96.70
2018-09-19T15:57:46.333Z,96.40
2018-09-19T16:00:15.343Z,96.50
2018-09-19T16:02:43.819Z,96.50
2018-09-19T16:05:12.098Z,96.40
2018-09-19T16:07:40.897Z,96.50
2018-09-19T16:10:28.233Z,96.60
2018-09-19T16:12:56.660Z,96.60
2018-09-19T16:18:03.528Z,96.70
2018-09-19T16:20:56.187Z,96.70
2018-09-19T16:23:33.281Z,96.80
2018-09-19T16:26:33.122Z,96.90
2018-09-19T16:29:14.014Z,96.90
2018-09-19T16:31:49.944Z,96.90
2018-09-19T16:34:23.718Z,97.00
2018-09-19T16:36:52.460Z,97.20
2018-09-19T16:39:25.476Z,97.40
2018-09-19T16:41:55.668Z,97.50
2018-09-19T16:44:27.774Z,97.40
2018-09-19T16:47:17.711Z,97.50
2018-09-19T16:49:50.341Z,97.60
2018-09-19T16:52:18.564Z,97.70
2018-09-19T16:54:46.715Z,97.60
2018-09-19T16:57:14.883Z,97.60
2018-09-19T16:59:43.027Z,97.30
2018-09-19T17:02:11.217Z,97.10
2018-09-19T17:04:39.409Z,97.10
2018-09-19T17:07:07.550Z,97.00
2018-09-19T17:09:41.532Z,96.80
2018-09-19T17:12:10.839Z,96.60
2018-09-19T17:14:40.356Z,96.60
2018-09-19T17:17:08.674Z,96.50
2018-09-19T17:19:36.903Z,96.50
2018-09-19T17:22:05.076Z,96.40
2018-09-19T17:24:33.216Z,96.60
2018-09-19T17:27:01.408Z,96.60
2018-09-19T17:29:29.604Z,96.60
2018-09-19T17:31:57.808Z,96.60
2018-09-19T17:34:25.990Z,96.70
2018-09-19T17:36:54.322Z,96.80
2018-09-19T17:39:23.399Z,96.80
2018-09-19T17:41:51.851Z,96.90
2018-09-19T17:44:20.316Z,97.00
2018-09-19T17:46:48.512Z,97.00
2018-09-19T17:49:16.764Z,97.10
2018-09-19T17:51:46.074Z,97.10
2018-09-19T17:54:14.324Z,97.20
2018-09-19T17:56:42.452Z,97.20
2018-09-19T17:59:10.750Z,97.40
2018-09-19T18:01:39.009Z,97.50
2018-09-19T18:04:07.575Z,97.70
2018-09-19T18:06:35.814Z,97.80
2018-09-19T18:09:08.721Z,97.80
2018-09-19T18:11:41.313Z,98.00
2018-09-19T18:14:10.000Z,98.10
2018-09-19T18:16:38.635Z,97.90
2018-09-19T18:19:07.129Z,98.20
2018-09-19T18:21:35.400Z,98.00
2018-09-19T18:24:03.734Z,97.90
2018-09-19T18:26:32.138Z,98.00
2018-09-19T18:29:00.433Z,97.90
2018-09-19T18:31:28.663Z,97.80
2018-09-19T18:33:56.892Z,97.90
2018-09-19T18:36:25.101Z,97.80
2018-09-19T18:38:53.374Z,97.70
2018-09-19T18:41:21.589Z,97.60
2018-09-19T18:43:50.015Z,97.60
2018-09-19T18:46:18.625Z,97.50
2018-09-19T18:48:46.851Z,97.50
2018-09-19T18:51:15.065Z,97.50
2018-09-19T18:53:43.391Z,97.40
2018-09-19T18:56:11.669Z,97.50
2018-09-19T18:58:40.836Z,97.40
2018-09-19T19:01:09.601Z,97.10
2018-09-19T19:03:38.139Z,97.10
2018-09-19T19:06:06.419Z,97.10
2018-09-19T19:08:35.789Z,97.10
2018-09-19T19:11:04.276Z,97.00
2018-09-19T19:13:32.575Z,97.20
2018-09-19T19:16:00.865Z,97.20
2018-09-19T19:18:30.092Z,97.20
2018-09-19T19:20:58.676Z,97.30
2018-09-19T19:23:26.985Z,97.40
2018-09-19T19:25:57.277Z,97.50
2018-09-19T19:28:26.489Z,97.60
2018-09-19T19:30:56.621Z,97.90
2018-09-19T19:33:24.957Z,97.90
2018-09-19T19:35:53.363Z,98.10
2018-09-19T19:38:22.197Z,98.20
2018-09-19T19:40:52.169Z,98.40
2018-09-19T19:43:22.437Z,98.40
2018-09-19T19:45:55.121Z,98.40
2018-09-19T19:48:25.074Z,98.50
2018-09-19T19:50:54.319Z,98.60
2018-09-19T19:53:27.728Z,98.40
2018-09-19T19:55:59.680Z,98.40
2018-09-19T19:58:31.745Z,98.40
2018-09-19T20:01:00.426Z,98.40
2018-09-19T20:03:28.975Z,98.40
2018-09-19T20:05:57.588Z,98.40
2018-09-19T20:08:25.878Z,98.10
2018-09-19T20:10:54.108Z,98.10
2018-09-19T20:13:22.671Z,98.00
2018-09-19T20:15:51.111Z,98.10
2018-09-19T20:18:19.356Z,98.10
2018-09-19T20:20:47.589Z,98.00
2018-09-19T20:23:15.836Z,98.10
2018-09-19T20:25:44.429Z,98.00
2018-09-19T20:28:32.978Z,98.10
2018-09-19T20:31:02.026Z,98.10
2018-09-19T20:33:30.574Z,98.20
2018-09-19T20:35:58.794Z,98.30
2018-09-19T20:38:27.097Z,98.30
2018-09-19T20:40:55.454Z,98.30
2018-09-19T20:43:23.753Z,98.40
2018-09-19T20:45:52.098Z,98.60
2018-09-19T20:48:20.324Z,98.80
2018-09-19T20:50:48.545Z,98.80
2018-09-19T20:53:16.853Z,98.90
2018-09-19T20:55:45.198Z,99.00
2018-09-19T20:58:13.692Z,99.10
2018-09-19T21:00:42.084Z,99.00
2018-09-19T21:03:10.343Z,99.20
2018-09-19T21:05:38.525Z,99.20
2018-09-19T21:08:06.913Z,99.20
2018-09-19T21:10:35.172Z,99.30
2018-09-19T21:13:03.522Z,99.60
2018-09-19T21:15:31.732Z,99.50
2018-09-19T21:17:59.888Z,99.60
2018-09-19T21:20:28.341Z,99.70
2018-09-19T21:22:56.533Z,99.70
2018-09-19T21:25:25.840Z,99.80
2018-09-19T21:27:54.083Z,99.60
2018-09-19T21:30:22.313Z,99.70
2018-09-19T21:32:50.592Z,99.80
2018-09-19T21:35:18.890Z,99.90
2018-09-19T21:37:47.157Z,99.70
2018-09-19T21:40:15.428Z,99.80
2018-09-19T21:42:43.695Z,99.70
2018-09-19T21:45:12.216Z,99.80
2018-09-19T21:47:40.372Z,99.70
2018-09-19T21:50:09.825Z,99.90
2018-09-19T21:52:38.044Z,99.80
2018-09-19T21:55:06.272Z,99.80
2018-09-19T21:57:34.623Z,99.90
2018-09-19T22:00:03.171Z,99.90
2018-09-19T22:02:31.456Z,99.90
2018-09-19T22:04:59.700Z,99.90
2018-09-19T22:07:27.957Z,99.90
2018-09-19T22:09:56.139Z,99.90
2018-09-19T22:12:25.368Z,99.90
2018-09-19T22:15:00.505Z,99.90
2018-09-19T22:17:28.748Z,99.90
2018-09-19T22:19:56.999Z,99.90
2018-09-19T22:22:25.221Z,99.90
2018-09-19T22:24:53.440Z,99.90
2018-09-19T22:27:21.621Z,99.90
2018-09-19T22:29:50.990Z,99.90
2018-09-19T22:32:19.272Z,99.90
2018-09-19T22:34:47.492Z,99.90
2018-09-19T22:37:15.720Z,99.90
2018-09-19T22:39:43.881Z,99.90
2018-09-19T22:42:12.117Z,99.90
2018-09-19T22:44:40.307Z,99.90
2018-09-19T22:47:08.552Z,99.90
2018-09-19T22:49:36.776Z,99.90
2018-09-19T22:52:05.028Z,99.90
2018-09-19T22:54:33.292Z,99.90
2018-09-19T22:57:01.484Z,99.90
2018-09-19T22:59:29.698Z,99.90
2018-09-19T23:01:57.971Z,99.90
2018-09-19T23:04:26.217Z,99.90
2018-09-19T23:06:54.437Z,99.90
2018-09-19T23:09:22.627Z,99.90
2018-09-19T23:11:50.818Z,99.90
2018-09-19T23:14:19.066Z,99.90
2018-09-19T23:16:47.294Z,99.90
2018-09-19T23:19:15.562Z,99.90
2018-09-19T23:21:43.796Z,99.90
2018-09-19T23:24:11.970Z,99.90
2018-09-19T23:26:40.236Z,99.90
2018-09-19T23:29:08.449Z,99.90
2018-09-19T23:31:36.660Z,99.90
2018-09-19T23:34:04.844Z,99.90
2018-09-19T23:36:33.093Z,99.90
2018-09-19T23:39:01.295Z,99.90
2018-09-19T23:41:29.520Z,99.90
2018-09-19T23:43:57.725Z,99.90
2018-09-19T23:46:26.020Z,99.90
2018-09-19T23:48:54.240Z,99.90
2018-09-19T23:51:22.456Z,99.90
2018-09-19T23:53:50.626Z,99.90
2018-09-19T23:56:18.843Z,99.90
2018-09-19T23:58:47.024Z,99.90
